Karmel — 9HA2896 — position and weather

sailwx.info

Track history (hours):
 
Tides and Currents Weather Stations Pressure Air Temp Water Temp Dewpoint Dewpoint Depression Visibility Wind Speed Wind Dir Waves Ship Positions

Karmel

Last reported at 2017-May-22 17:29 UTC. Time now 2017-May-27 08:15 UTC.
Position N 56°22' E 017°28'.

Length 90 m; draft 5.5 m.

Type: Ship. MMSI: 256632000.

Date/timePositionNaut miles runAvg speedWind from/ knotsBaromVisibWave heightAir tempDewpointWater temp
2017-May-22 17:29N 56°22' E 017°28'510.6
2017-May-22 16:59N 56°18' E 017°21'510.7
2017-May-22 16:30N 56°15' E 017°14'510.7
2017-May-22 16:00N 56°12' E 017°06'510.8
2017-May-22 15:30N 56°09' E 016°58'510.8
2017-May-22 15:00N 56°05' E 016°51'1110.7
2017-May-22 14:00N 55°60' E 016°34'510.7
2017-May-22 13:30N 55°57' E 016°26'510.7
2017-May-22 13:00N 55°55' E 016°17'510.6
2017-May-22 12:30N 55°52' E 016°09'510.6
2017-May-22 12:00N 55°50' E 016°01'510.6
2017-May-22 11:30N 55°47' E 015°53'510.6
2017-May-22 11:00N 55°45' E 015°44'510.5
2017-May-22 10:30N 55°42' E 015°36'510.6
2017-May-22 10:00N 55°39' E 015°28'510.7
2017-May-22 09:30N 55°37' E 015°20'510.8
2017-May-22 09:00N 55°35' E 015°11'510.7
2017-May-22 08:30N 55°32' E 015°03'611.1
2017-May-22 07:57N 55°29' E 014°54'511.0
2017-May-22 07:29N 55°26' E 014°46'510.8
2017-May-22 07:00N 55°23' E 014°38'611.2
2017-May-22 06:30N 55°19' E 014°32'611.5
2017-May-22 06:00N 55°14' E 014°26'611.7
2017-May-22 05:27N 55°10' E 014°17'510.8
2017-May-22 05:00N 55°10' E 014°09'510.9
2017-May-22 04:30N 55°11' E 013°59'510.7
2017-May-22 04:00N 55°12' E 013°50'510.7
2017-May-22 03:30N 55°12' E 013°41'710.4
2017-May-22 02:48N 55°13' E 013°28'1210.6
2017-May-22 01:42N 55°14' E 013°08'210.7
2017-May-22 01:30N 55°14' E 013°04'510.6
2017-May-22 01:00N 55°15' E 012°55'510.5
2017-May-22 00:30N 55°16' E 012°46'510.2
2017-May-22 00:00N 55°18' E 012°38'510.1
2017-May-21 23:30N 55°23' E 012°39'510.4
2017-May-21 23:00N 55°28' E 012°41'510.3
2017-May-21 22:30N 55°34' E 012°42'511.0
2017-May-21 22:00N 55°39' E 012°41'510.9
2017-May-21 21:30N 55°44' E 012°41'511.0
2017-May-21 21:00N 55°50' E 012°40'510.3
2017-May-21 20:30N 55°55' E 012°39'510.9
2017-May-21 20:00N 56°00' E 012°38'510.0
2017-May-21 19:30N 56°05' E 012°35'611.2
2017-May-21 19:00N 56°09' E 012°27'4510.3
2017-May-21 14:37N 56°49' E 011°49'211.1
2017-May-21 14:28N 56°50' E 011°48'1211.1
2017-May-21 13:25N 57°01' E 011°41'511.0
2017-May-21 12:58N 57°06' E 011°38'510.5
2017-May-21 12:30N 57°10' E 011°35'510.5
2017-May-21 12:01N 57°15' E 011°32'510.7
2017-May-21 11:30N 57°20' E 011°29'510.6
2017-May-21 11:00N 57°25' E 011°25'510.5
2017-May-21 10:30N 57°30' E 011°19'510.2
2017-May-21 10:00N 57°33' E 011°12'510.0
2017-May-21 09:30N 57°37' E 011°06'510.2
2017-May-21 09:00N 57°40' E 010°59'510.8
2017-May-21 08:30N 57°44' E 010°51'611.0
2017-May-21 08:00N 57°47' E 010°43'1112.3
2017-May-21 07:08N 57°45' E 010°24'3711.5
2017-May-21 03:56N 57°29' E 009°22'1511.5
2017-May-21 02:40N 57°22' E 008°59'311.7
2017-May-21 02:27N 57°20' E 008°54'2211.7
2017-May-21 00:32N 57°06' E 008°23'012.2
2017-May-21 00:30N 57°06' E 008°22'612.0
2017-May-20 23:59N 57°01' E 008°16'612.1
2017-May-20 23:30N 56°56' E 008°09'612.0
2017-May-20 22:59N 56°51' E 008°03'611.9
2017-May-20 22:28N 56°46' E 007°56'612.0
2017-May-20 21:59N 56°41' E 007°49'611.7
2017-May-20 21:29N 56°37' E 007°44'611.5
2017-May-20 21:00N 56°32' E 007°39'611.4
2017-May-20 20:29N 56°27' E 007°33'611.3
2017-May-20 19:59N 56°22' E 007°28'511.3
2017-May-20 19:30N 56°17' E 007°24'611.3
2017-May-20 18:59N 56°12' E 007°19'511.2
2017-May-20 18:30N 56°07' E 007°14'611.2
2017-May-20 17:59N 56°02' E 007°08'511.0
2017-May-20 17:30N 55°58' E 007°03'611.0
2017-May-20 16:59N 55°53' E 006°58'511.0
2017-May-20 16:30N 55°48' E 006°53'611.0
2017-May-20 16:00N 55°43' E 006°49'611.0
2017-May-20 15:29N 55°38' E 006°44'711.0
2017-May-20 14:49N 55°32' E 006°37'411.1
2017-May-20 14:30N 55°29' E 006°34'1811.1
2017-May-20 12:50N 55°13' E 006°17'14810.9
2017-May-19 23:16N 53°02' E 004°22'311.5
2017-May-19 23:00N 52°59' E 004°20'611.7
2017-May-19 22:30N 52°54' E 004°16'4011.5
2017-May-19 19:05N 52°17' E 003°52'311.0
2017-May-19 18:51N 52°15' E 003°53'411.0
2017-May-19 18:30N 52°11' E 003°54'510.8
2017-May-19 18:00N 52°06' E 003°55'4 7.9
2017-May-19 17:30N 52°02' E 003°57'5 9.9
2017-May-19 17:00N 51°59' E 004°04'611.2
2017-May-19 16:30N 51°56' E 004°12'510.8
2017-May-19 16:00N 51°54' E 004°19'3 6.6
2017-May-19 15:29N 51°55' E 004°25'0 0.0
2017-May-19 14:59N 51°55' E 004°25'0 0.0
2017-May-19 13:59N 51°55' E 004°25'0 0.0
2017-May-19 13:29N 51°55' E 004°25'0 0.0
2017-May-19 12:59N 51°55' E 004°25'0 0.0
2017-May-19 12:29N 51°55' E 004°25'0 0.0
2017-May-19 11:59N 51°55' E 004°25'0 0.0
2017-May-19 11:29N 51°55' E 004°25'0 0.0
2017-May-19 10:59N 51°55' E 004°25'0 0.0
2017-May-19 10:29N 51°55' E 004°25'0 0.0
2017-May-19 09:59N 51°55' E 004°25'0 0.0
2017-May-19 09:29N 51°55' E 004°25'0 0.0
2017-May-19 08:59N 51°55' E 004°25'0 0.0
2017-May-19 08:29N 51°55' E 004°25'0 0.0
2017-May-19 07:59N 51°55' E 004°25'0 0.0
2017-May-19 07:29N 51°55' E 004°25'0 0.0
2017-May-19 06:59N 51°55' E 004°25'0 0.0
2017-May-19 06:29N 51°55' E 004°25'0 0.0
2017-May-19 05:59N 51°55' E 004°25'0 0.0
2017-May-19 05:29N 51°55' E 004°25'0 0.0
2017-May-19 05:00N 51°55' E 004°25'0 0.0
2017-May-19 04:29N 51°55' E 004°25'0 0.0
2017-May-19 03:59N 51°55' E 004°25'0 0.0
2017-May-19 03:29N 51°55' E 004°25'0 0.0
2017-May-19 03:00N 51°55' E 004°25'0 0.0
2017-May-19 02:30N 51°55' E 004°25'0 0.0
2017-May-19 02:00N 51°55' E 004°25'0 0.0
2017-May-19 01:29N 51°55' E 004°25'0 0.0
2017-May-19 01:00N 51°55' E 004°25'0 0.0
2017-May-19 00:29N 51°55' E 004°25'0 0.0
2017-May-18 23:59N 51°55' E 004°25'0 0.0
2017-May-18 23:29N 51°55' E 004°25'0 0.0
2017-May-18 22:59N 51°55' E 004°25'0 0.0
2017-May-18 22:29N 51°55' E 004°25'0 0.0
2017-May-18 21:59N 51°55' E 004°25'0 0.0
2017-May-18 21:29N 51°55' E 004°25'0 0.0
2017-May-18 20:57N 51°55' E 004°25'0 0.0
2017-May-18 20:29N 51°55' E 004°25'0 0.0
2017-May-18 19:59N 51°55' E 004°25'0 0.0
2017-May-18 19:29N 51°55' E 004°25'0 0.0
2017-May-18 18:59N 51°55' E 004°25'0 0.0
2017-May-18 18:29N 51°55' E 004°25'0 0.0
2017-May-18 17:59N 51°55' E 004°25'0 0.0
2017-May-18 17:29N 51°55' E 004°25'0 0.0
2017-May-18 16:59N 51°55' E 004°25'0 0.0
2017-May-18 16:26N 51°55' E 004°25'0 0.0
2017-May-18 15:59N 51°55' E 004°25'0 0.0
2017-May-18 15:30N 51°55' E 004°25'0 0.0
2017-May-18 14:59N 51°55' E 004°25'1 1.2
2017-May-18 14:30N 51°54' E 004°25'9 9.2
2017-May-18 13:30N 51°57' E 004°10'5 9.5
2017-May-18 13:00N 51°59' E 004°04'510.0
2017-May-18 12:30N 52°00' E 003°56'511.1
2017-May-18 12:00N 52°02' E 003°47'7810.9
2017-May-18 04:48N 52°45' E 001°60'310.8
2017-May-18 04:29N 52°47' E 001°55'511.1
2017-May-18 04:00N 52°50' E 001°48'611.3
2017-May-18 03:30N 52°53' E 001°40'611.4
2017-May-18 03:00N 52°56' E 001°32'611.8
2017-May-18 02:30N 52°60' E 001°24'612.1
2017-May-18 02:00N 53°03' E 001°16'  
2017-May-13 15:19N 53°06' E 001°03'412.2
2017-May-13 15:00N 53°05' E 001°09'612.2
2017-May-13 14:30N 53°03' E 001°18'1211.7
2017-May-13 13:30N 53°03' E 001°38'611.3
2017-May-13 13:01N 53°02' E 001°47'510.7
2017-May-13 12:31N 53°01' E 001°56'59 9.8
2017-May-13 06:29N 53°06' E 003°34'5 9.5
2017-May-13 06:00N 53°07' E 003°42'5 9.6
2017-May-13 05:29N 53°08' E 003°50'5 9.7
2017-May-13 04:59N 53°08' E 003°58'5 9.9
2017-May-13 04:30N 53°08' E 004°06'  
Track history (hours):
 
Tides and Currents Weather Stations Pressure Air Temp Water Temp Dewpoint Dewpoint Depression Visibility Wind Speed Wind Dir Waves Ship Positions

Karmel

Last reported at 2017-May-22 17:29 UTC. Time now 2017-May-27 08:15 UTC.
Position N 56°22' E 017°28'.

Length 90 m; draft 5.5 m.

Type: Ship. MMSI: 256632000.

Date/timePositionNaut miles runAvg speedWind from/ knotsBaromVisibWave heightAir tempDewpointWater temp
2017-May-22 17:29N 56°22' E 017°28'510.6
2017-May-22 16:59N 56°18' E 017°21'510.7
2017-May-22 16:30N 56°15' E 017°14'510.7
2017-May-22 16:00N 56°12' E 017°06'510.8
2017-May-22 15:30N 56°09' E 016°58'510.8
2017-May-22 15:00N 56°05' E 016°51'1110.7
2017-May-22 14:00N 55°60' E 016°34'510.7
2017-May-22 13:30N 55°57' E 016°26'510.7
2017-May-22 13:00N 55°55' E 016°17'510.6
2017-May-22 12:30N 55°52' E 016°09'510.6
2017-May-22 12:00N 55°50' E 016°01'510.6
2017-May-22 11:30N 55°47' E 015°53'510.6
2017-May-22 11:00N 55°45' E 015°44'510.5
2017-May-22 10:30N 55°42' E 015°36'510.6
2017-May-22 10:00N 55°39' E 015°28'510.7
2017-May-22 09:30N 55°37' E 015°20'510.8
2017-May-22 09:00N 55°35' E 015°11'510.7
2017-May-22 08:30N 55°32' E 015°03'611.1
2017-May-22 07:57N 55°29' E 014°54'511.0
2017-May-22 07:29N 55°26' E 014°46'510.8
2017-May-22 07:00N 55°23' E 014°38'611.2
2017-May-22 06:30N 55°19' E 014°32'611.5
2017-May-22 06:00N 55°14' E 014°26'611.7
2017-May-22 05:27N 55°10' E 014°17'510.8
2017-May-22 05:00N 55°10' E 014°09'510.9
2017-May-22 04:30N 55°11' E 013°59'510.7
2017-May-22 04:00N 55°12' E 013°50'510.7
2017-May-22 03:30N 55°12' E 013°41'710.4
2017-May-22 02:48N 55°13' E 013°28'1210.6
2017-May-22 01:42N 55°14' E 013°08'210.7
2017-May-22 01:30N 55°14' E 013°04'510.6
2017-May-22 01:00N 55°15' E 012°55'510.5
2017-May-22 00:30N 55°16' E 012°46'510.2
2017-May-22 00:00N 55°18' E 012°38'510.1
2017-May-21 23:30N 55°23' E 012°39'510.4
2017-May-21 23:00N 55°28' E 012°41'510.3
2017-May-21 22:30N 55°34' E 012°42'511.0
2017-May-21 22:00N 55°39' E 012°41'510.9
2017-May-21 21:30N 55°44' E 012°41'511.0
2017-May-21 21:00N 55°50' E 012°40'510.3
2017-May-21 20:30N 55°55' E 012°39'510.9
2017-May-21 20:00N 56°00' E 012°38'510.0
2017-May-21 19:30N 56°05' E 012°35'611.2
2017-May-21 19:00N 56°09' E 012°27'4510.3
2017-May-21 14:37N 56°49' E 011°49'211.1
2017-May-21 14:28N 56°50' E 011°48'1211.1
2017-May-21 13:25N 57°01' E 011°41'511.0
2017-May-21 12:58N 57°06' E 011°38'510.5
2017-May-21 12:30N 57°10' E 011°35'510.5
2017-May-21 12:01N 57°15' E 011°32'510.7
2017-May-21 11:30N 57°20' E 011°29'510.6
2017-May-21 11:00N 57°25' E 011°25'510.5
2017-May-21 10:30N 57°30' E 011°19'510.2
2017-May-21 10:00N 57°33' E 011°12'510.0
2017-May-21 09:30N 57°37' E 011°06'510.2
2017-May-21 09:00N 57°40' E 010°59'510.8
2017-May-21 08:30N 57°44' E 010°51'611.0
2017-May-21 08:00N 57°47' E 010°43'1112.3
2017-May-21 07:08N 57°45' E 010°24'3711.5
2017-May-21 03:56N 57°29' E 009°22'1511.5
2017-May-21 02:40N 57°22' E 008°59'311.7
2017-May-21 02:27N 57°20' E 008°54'2211.7
2017-May-21 00:32N 57°06' E 008°23'012.2
2017-May-21 00:30N 57°06' E 008°22'612.0
2017-May-20 23:59N 57°01' E 008°16'612.1
2017-May-20 23:30N 56°56' E 008°09'612.0
2017-May-20 22:59N 56°51' E 008°03'611.9
2017-May-20 22:28N 56°46' E 007°56'612.0
2017-May-20 21:59N 56°41' E 007°49'611.7
2017-May-20 21:29N 56°37' E 007°44'611.5
2017-May-20 21:00N 56°32' E 007°39'611.4
2017-May-20 20:29N 56°27' E 007°33'611.3
2017-May-20 19:59N 56°22' E 007°28'511.3
2017-May-20 19:30N 56°17' E 007°24'611.3
2017-May-20 18:59N 56°12' E 007°19'511.2
2017-May-20 18:30N 56°07' E 007°14'611.2
2017-May-20 17:59N 56°02' E 007°08'511.0
2017-May-20 17:30N 55°58' E 007°03'611.0
2017-May-20 16:59N 55°53' E 006°58'511.0
2017-May-20 16:30N 55°48' E 006°53'611.0
2017-May-20 16:00N 55°43' E 006°49'611.0
2017-May-20 15:29N 55°38' E 006°44'711.0
2017-May-20 14:49N 55°32' E 006°37'411.1
2017-May-20 14:30N 55°29' E 006°34'1811.1
2017-May-20 12:50N 55°13' E 006°17'14810.9
2017-May-19 23:16N 53°02' E 004°22'311.5
2017-May-19 23:00N 52°59' E 004°20'611.7
2017-May-19 22:30N 52°54' E 004°16'4011.5
2017-May-19 19:05N 52°17' E 003°52'311.0
2017-May-19 18:51N 52°15' E 003°53'411.0
2017-May-19 18:30N 52°11' E 003°54'510.8
2017-May-19 18:00N 52°06' E 003°55'4 7.9
2017-May-19 17:30N 52°02' E 003°57'5 9.9
2017-May-19 17:00N 51°59' E 004°04'611.2
2017-May-19 16:30N 51°56' E 004°12'510.8
2017-May-19 16:00N 51°54' E 004°19'3 6.6
2017-May-19 15:29N 51°55' E 004°25'0 0.0
2017-May-19 14:59N 51°55' E 004°25'0 0.0
2017-May-19 13:59N 51°55' E 004°25'0 0.0
2017-May-19 13:29N 51°55' E 004°25'0 0.0
2017-May-19 12:59N 51°55' E 004°25'0 0.0
2017-May-19 12:29N 51°55' E 004°25'0 0.0
2017-May-19 11:59N 51°55' E 004°25'0 0.0
2017-May-19 11:29N 51°55' E 004°25'0 0.0
2017-May-19 10:59N 51°55' E 004°25'0 0.0
2017-May-19 10:29N 51°55' E 004°25'0 0.0
2017-May-19 09:59N 51°55' E 004°25'0 0.0
2017-May-19 09:29N 51°55' E 004°25'0 0.0
2017-May-19 08:59N 51°55' E 004°25'0 0.0
2017-May-19 08:29N 51°55' E 004°25'0 0.0
2017-May-19 07:59N 51°55' E 004°25'0 0.0
2017-May-19 07:29N 51°55' E 004°25'0 0.0
2017-May-19 06:59N 51°55' E 004°25'0 0.0
2017-May-19 06:29N 51°55' E 004°25'0 0.0
2017-May-19 05:59N 51°55' E 004°25'0 0.0
2017-May-19 05:29N 51°55' E 004°25'0 0.0
2017-May-19 05:00N 51°55' E 004°25'0 0.0
2017-May-19 04:29N 51°55' E 004°25'0 0.0
2017-May-19 03:59N 51°55' E 004°25'0 0.0
2017-May-19 03:29N 51°55' E 004°25'0 0.0
2017-May-19 03:00N 51°55' E 004°25'0 0.0
2017-May-19 02:30N 51°55' E 004°25'0 0.0
2017-May-19 02:00N 51°55' E 004°25'0 0.0
2017-May-19 01:29N 51°55' E 004°25'0 0.0
2017-May-19 01:00N 51°55' E 004°25'0 0.0
2017-May-19 00:29N 51°55' E 004°25'0 0.0
2017-May-18 23:59N 51°55' E 004°25'0 0.0
2017-May-18 23:29N 51°55' E 004°25'0 0.0
2017-May-18 22:59N 51°55' E 004°25'0 0.0
2017-May-18 22:29N 51°55' E 004°25'0 0.0
2017-May-18 21:59N 51°55' E 004°25'0 0.0
2017-May-18 21:29N 51°55' E 004°25'0 0.0
2017-May-18 20:57N 51°55' E 004°25'0 0.0
2017-May-18 20:29N 51°55' E 004°25'0 0.0
2017-May-18 19:59N 51°55' E 004°25'0 0.0
2017-May-18 19:29N 51°55' E 004°25'0 0.0
2017-May-18 18:59N 51°55' E 004°25'0 0.0
2017-May-18 18:29N 51°55' E 004°25'0 0.0
2017-May-18 17:59N 51°55' E 004°25'0 0.0
2017-May-18 17:29N 51°55' E 004°25'0 0.0
2017-May-18 16:59N 51°55' E 004°25'0 0.0
2017-May-18 16:26N 51°55' E 004°25'0 0.0
2017-May-18 15:59N 51°55' E 004°25'0 0.0
2017-May-18 15:30N 51°55' E 004°25'0 0.0
2017-May-18 14:59N 51°55' E 004°25'1 1.2
2017-May-18 14:30N 51°54' E 004°25'9 9.2
2017-May-18 13:30N 51°57' E 004°10'5 9.5
2017-May-18 13:00N 51°59' E 004°04'510.0
2017-May-18 12:30N 52°00' E 003°56'511.1
2017-May-18 12:00N 52°02' E 003°47'7810.9
2017-May-18 04:48N 52°45' E 001°60'310.8
2017-May-18 04:29N 52°47' E 001°55'511.1
2017-May-18 04:00N 52°50' E 001°48'611.3
2017-May-18 03:30N 52°53' E 001°40'611.4
2017-May-18 03:00N 52°56' E 001°32'611.8
2017-May-18 02:30N 52°60' E 001°24'612.1
2017-May-18 02:00N 53°03' E 001°16'  
2017-May-13 15:19N 53°06' E 001°03'412.2
2017-May-13 15:00N 53°05' E 001°09'612.2
2017-May-13 14:30N 53°03' E 001°18'1211.7
2017-May-13 13:30N 53°03' E 001°38'611.3
2017-May-13 13:01N 53°02' E 001°47'510.7
2017-May-13 12:31N 53°01' E 001°56'59 9.8
2017-May-13 06:29N 53°06' E 003°34'5 9.5
2017-May-13 06:00N 53°07' E 003°42'5 9.6
2017-May-13 05:29N 53°08' E 003°50'5 9.7
2017-May-13 04:59N 53°08' E 003°58'5 9.9
2017-May-13 04:30N 53°08' E 004°06'  

Dump ship's entire track history